Time;durP1;ratioP1;P1;durP2;ratioP2;P2;SDS_P1;SDS_P2;PMS_P1;PMS_P2;Temp;Humidity;BMP_temperature;BMP_pressure;BME280_temperature;BME280_humidity;BME280_pressure;Samples;Min_cycle;Max_cycle;Signal;HPM_P1;HPM_P2
2022/06/02 00:01:03;;;;;;;6.82;5.90;;;;;;;-141.50;100.00;63355.56;5055944;28;20081;-86
2022/06/02 00:03:41;;;;;;;6.90;6.20;;;;;;;-141.50;100.00;63355.56;5055573;28;20108;-87
2022/06/02 00:06:15;;;;;;;7.97;6.30;;;;;;;-141.50;100.00;63355.56;5056155;28;20084;-85
2022/06/02 00:09:13;;;;;;;9.23;6.53;;;;;;;-141.50;100.00;63355.56;5057859;28;20102;-88
2022/06/02 00:12:37;;;;;;;8.77;6.70;;;;;;;-141.50;100.00;63355.56;5058943;28;20048;-88
2022/06/02 00:15:18;;;;;;;11.32;7.40;;;;;;;-141.50;100.00;63355.56;4995939;28;20081;-86
2022/06/02 00:17:57;;;;;;;12.95;9.82;;;;;;;-141.50;100.00;63355.56;4984755;28;20038;-88
2022/06/02 00:20:31;;;;;;;13.73;10.15;;;;;;;-141.50;100.00;63355.56;5026398;28;20138;-88
2022/06/02 00:23:20;;;;;;;15.65;9.75;;;;;;;-141.50;100.00;63355.56;5037329;28;20561;-86
2022/06/02 00:25:50;;;;;;;17.88;13.57;;;;;;;-141.50;100.00;63355.56;5037684;28;20559;-85
2022/06/02 00:28:46;;;;;;;14.90;12.65;;;;;;;-141.50;100.00;63355.56;5038054;28;20071;-86
2022/06/02 00:31:37;;;;;;;14.80;11.85;;;;;;;-141.50;100.00;63355.56;5050314;28;20056;-86
2022/06/02 00:34:25;;;;;;;17.30;11.73;;;;;;;-141.50;100.00;63355.56;5076044;28;20029;-86
2022/06/02 00:37:20;;;;;;;14.35;12.00;;;;;;;-141.50;100.00;63355.56;5059287;28;20049;-85
2022/06/02 00:39:48;;;;;;;16.27;12.68;;;;;;;-141.50;100.00;63355.56;5040437;28;20147;-86
2022/06/02 00:42:24;;;;;;;19.23;13.35;;;;;;;-141.50;100.00;63355.56;5038720;28;20684;-85
2022/06/02 00:45:01;;;;;;;18.35;12.65;;;;;;;-141.50;100.00;63355.56;5055963;28;20159;-87
2022/06/02 00:48:06;;;;;;;17.92;12.30;;;;;;;-141.50;100.00;63355.56;5051492;28;20053;-85
2022/06/02 00:50:53;;;;;;;18.80;13.05;;;;;;;-141.50;100.00;63355.56;5033475;28;20048;-86
2022/06/02 00:53:19;;;;;;;16.67;13.32;;;;;;;-141.50;100.00;63355.56;5034521;28;20521;-85
2022/06/02 00:58:50;;;;;;;17.10;13.23;;;;;;;-141.50;100.00;63355.56;5055550;28;20049;-87
2022/06/02 01:01:32;;;;;;;15.93;13.48;;;;;;;-141.50;100.00;63355.56;5037121;28;20507;-87
2022/06/02 01:04:14;;;;;;;18.65;13.52;;;;;;;-141.50;100.00;63355.56;5036270;28;20142;-86
2022/06/02 01:06:53;;;;;;;17.95;14.40;;;;;;;-141.50;100.00;63355.56;5036955;28;20465;-85
2022/06/02 01:09:35;;;;;;;19.08;13.65;;;;;;;-141.50;100.00;63355.56;5053031;28;20073;-85
2022/06/02 01:12:17;;;;;;;16.58;13.25;;;;;;;-141.50;100.00;63355.56;5066137;28;20106;-85
2022/06/02 01:15:14;;;;;;;15.93;12.50;;;;;;;-141.50;100.00;63355.56;5074141;28;20083;-86
2022/06/02 01:18:09;;;;;;;17.35;13.07;;;;;;;-141.50;100.00;63355.56;5039547;28;20498;-85
2022/06/02 01:20:46;;;;;;;20.00;13.27;;;;;;;-141.50;100.00;63355.56;5058261;28;20053;-84
2022/06/02 01:23:36;;;;;;;18.75;13.50;;;;;;;-141.50;100.00;63355.56;5073545;28;20090;-87
2022/06/02 01:26:42;;;;;;;17.23;13.52;;;;;;;-141.50;100.00;63355.56;5054698;28;20144;-85
2022/06/02 01:29:26;;;;;;;19.35;14.35;;;;;;;-141.50;100.00;63355.56;5071290;28;20074;-84
2022/06/02 01:32:10;;;;;;;17.60;14.38;;;;;;;-141.50;100.00;63355.56;5054265;28;20489;-85
2022/06/02 01:35:03;;;;;;;21.60;14.52;;;;;;;-141.50;100.00;63355.56;5071504;28;20110;-85
2022/06/02 01:37:42;;;;;;;19.35;15.52;;;;;;;-141.50;100.00;63355.56;5054631;28;20048;-84
2022/06/02 01:40:08;;;;;;;;;;;;;;;-141.50;100.00;63355.56;5072137;28;20152;-86
2022/06/02 01:42:52;;;;;;;20.90;14.18;;;;;;;-141.50;100.00;63355.56;5058111;28;19975;-86
2022/06/02 01:45:46;;;;;;;18.13;13.18;;;;;;;-141.50;100.00;63355.56;5072347;28;20043;-88
2022/06/02 01:48:38;;;;;;;21.38;13.95;;;;;;;-141.50;100.00;63355.56;5062073;28;20052;-87
2022/06/02 01:51:30;;;;;;;20.15;15.65;;;;;;;-141.50;100.00;63355.56;5056019;28;20489;-87
2022/06/02 01:54:36;;;;;;;21.10;14.90;;;;;;;-141.50;100.00;63355.56;5074222;28;20064;-86
2022/06/02 01:57:30;;;;;;;16.88;12.90;;;;;;;-141.50;100.00;63355.56;5056932;28;20111;-87
2022/06/02 02:00:11;;;;;;;17.70;13.60;;;;;;;-141.50;100.00;63355.56;5073826;28;20439;-87
2022/06/02 02:03:06;;;;;;;18.40;13.70;;;;;;;-141.50;100.00;63355.56;5054486;28;20068;-88
2022/06/02 02:05:42;;;;;;;19.20;12.48;;;;;;;-141.50;100.00;63355.56;5053260;28;20045;-85
2022/06/02 02:08:08;;;;;;;;;;;;;;;-141.50;100.00;63355.56;5052812;28;20467;-86
2022/06/02 02:11:06;;;;;;;19.65;13.73;;;;;;;-141.50;100.00;63355.56;5070133;28;19931;-85
2022/06/02 02:13:51;;;;;;;22.50;15.35;;;;;;;-141.50;100.00;63355.56;5049438;28;20055;-84
2022/06/02 02:16:51;;;;;;;27.27;18.17;;;;;;;-141.50;100.00;63355.56;5049535;28;20049;-85
2022/06/02 02:19:30;;;;;;;26.15;19.13;;;;;;;-141.50;100.00;63355.56;5050225;28;20049;-85
2022/06/02 02:22:26;;;;;;;24.23;17.30;;;;;;;-141.50;100.00;63355.56;5055699;28;20403;-87
2022/06/02 02:25:02;;;;;;;26.45;18.88;;;;;;;-141.50;100.00;63355.56;5053620;28;20075;-87
2022/06/02 02:27:31;;;;;;;;;;;;;;;-141.50;100.00;63355.56;5054693;28;20064;-86
2022/06/02 02:30:11;;;;;;;20.60;15.32;;;;;;;-141.50;100.00;63355.56;5053288;28;19920;-85
2022/06/02 02:33:16;;;;;;;23.10;15.32;;;;;;;-141.50;100.00;63355.56;5052111;28;20068;-87
2022/06/02 02:36:12;;;;;;;23.45;16.75;;;;;;;-141.50;100.00;63355.56;5051519;28;20048;-85
2022/06/02 02:39:17;;;;;;;24.02;18.10;;;;;;;-141.50;100.00;63355.56;5052995;28;20106;-87
2022/06/02 02:41:59;;;;;;;30.10;17.67;;;;;;;-141.50;100.00;63355.56;4998802;28;20053;-87
2022/06/02 02:44:37;;;;;;;26.75;18.13;;;;;;;-141.50;100.00;63355.56;5051594;28;20064;-86
2022/06/02 02:47:16;;;;;;;24.38;17.10;;;;;;;-141.50;100.00;63355.56;5051812;28;20440;-86
2022/06/02 02:50:09;;;;;;;27.35;17.45;;;;;;;-141.50;100.00;63355.56;5051356;28;20045;-85
2022/06/02 02:52:47;;;;;;;22.67;16.42;;;;;;;-141.50;100.00;63355.56;5061485;28;20053;-85
2022/06/02 02:55:28;;;;;;;26.10;16.60;;;;;;;-141.50;100.00;63355.56;5049744;28;20053;-84
2022/06/02 02:58:06;;;;;;;24.52;16.35;;;;;;;-141.50;100.00;63355.56;5051483;28;20081;-84
2022/06/02 03:00:59;;;;;;;22.75;16.75;;;;;;;-141.50;100.00;63355.56;5056033;28;20111;-86
2022/06/02 03:03:46;;;;;;;21.08;15.00;;;;;;;-141.50;100.00;63355.56;5057630;28;20120;-87
2022/06/02 03:06:23;;;;;;;22.08;15.40;;;;;;;-141.50;100.00;63355.56;5059746;28;20126;-85
2022/06/02 03:08:56;;;;;;;20.50;14.95;;;;;;;-141.50;100.00;63355.56;5052282;28;20083;-85
2022/06/02 03:11:41;;;;;;;21.27;15.63;;;;;;;-141.50;100.00;63355.56;5052712;28;20087;-85
2022/06/02 03:14:46;;;;;;;22.23;15.18;;;;;;;-141.50;100.00;63355.56;5076082;28;20112;-85
2022/06/02 03:17:22;;;;;;;21.88;16.45;;;;;;;-141.50;100.00;63355.56;5071521;28;20045;-85
2022/06/02 03:20:01;;;;;;;21.25;15.93;;;;;;;-141.50;100.00;63355.56;5090856;28;20055;-85
2022/06/02 03:23:06;;;;;;;21.88;16.05;;;;;;;-141.50;100.00;63355.56;5074739;28;20048;-86
2022/06/02 03:25:43;;;;;;;17.67;14.15;;;;;;;-141.50;100.00;63355.56;4991234;28;20050;-84
2022/06/02 03:28:22;;;;;;;21.70;14.63;;;;;;;-141.50;100.00;63355.56;5078813;28;20049;-84
2022/06/02 03:31:12;;;;;;;19.98;14.88;;;;;;;-141.50;100.00;63355.56;5074304;28;20037;-85
2022/06/02 03:33:55;;;;;;;26.17;15.60;;;;;;;-141.50;100.00;63355.56;5083770;28;20045;-86
2022/06/02 03:36:34;;;;;;;20.13;14.85;;;;;;;-141.50;100.00;63355.56;5078029;28;20059;-86
2022/06/02 03:39:07;;;;;;;19.48;14.75;;;;;;;-141.50;100.00;63355.56;5076317;28;20053;-85
2022/06/02 03:41:52;;;;;;;19.33;14.50;;;;;;;-141.50;100.00;63355.56;5071396;28;20053;-86
2022/06/02 03:44:36;;;;;;;20.63;14.25;;;;;;;-141.50;100.00;63355.56;5064627;28;20118;-84
2022/06/02 03:47:42;;;;;;;19.10;13.70;;;;;;;-141.50;100.00;63355.56;5053733;28;20111;-84
2022/06/02 03:50:27;;;;;;;20.98;13.80;;;;;;;-141.50;100.00;63355.56;5031544;28;20045;-85
2022/06/02 03:53:23;;;;;;;18.95;14.38;;;;;;;-141.50;100.00;63355.56;5059683;28;20053;-85
2022/06/02 03:56:11;;;;;;;20.23;14.48;;;;;;;-141.50;100.00;63355.56;5057844;28;20084;-85
2022/06/02 03:58:49;;;;;;;22.42;14.77;;;;;;;-141.50;100.00;63355.56;5062363;28;20052;-85
2022/06/02 04:01:26;;;;;;;18.17;14.20;;;;;;;-141.50;100.00;63355.56;5081253;28;20048;-85
2022/06/02 04:04:09;;;;;;;18.75;14.23;;;;;;;-141.50;100.00;63355.56;5085585;28;20641;-86
2022/06/02 04:06:54;;;;;;;24.27;13.30;;;;;;;-141.50;100.00;63355.56;5085500;28;20060;-85
2022/06/02 04:09:49;;;;;;;16.77;13.05;;;;;;;-141.50;100.00;63355.56;5083910;28;20112;-84
2022/06/02 04:15:45;;;;;;;16.00;11.82;;;;;;;-141.50;100.00;63355.56;5084107;28;20230;-84
2022/06/02 04:18:39;;;;;;;16.00;11.00;;;;;;;-141.50;100.00;63355.56;5083076;28;20063;-85
2022/06/02 04:21:24;;;;;;;15.05;12.02;;;;;;;-141.50;100.00;63355.56;5054312;28;20068;-85
2022/06/02 04:24:15;;;;;;;14.75;11.57;;;;;;;-141.50;100.00;63355.56;5084915;28;20495;-84
2022/06/02 04:27:01;;;;;;;15.85;11.80;;;;;;;-141.50;100.00;63355.56;5085400;28;20052;-84
2022/06/02 04:29:46;;;;;;;21.98;10.85;;;;;;;-141.50;100.00;63355.56;5068854;28;20040;-82
2022/06/02 04:32:40;;;;;;;14.85;10.75;;;;;;;-141.50;100.00;63355.56;5053433;28;20049;-85
2022/06/02 04:35:19;;;;;;;13.73;10.25;;;;;;;-141.50;100.00;63355.56;5067435;28;20052;-85
2022/06/02 04:38:14;;;;;;;13.82;10.45;;;;;;;-141.50;100.00;63355.56;5092224;28;20502;-84
2022/06/02 04:40:59;;;;;;;15.30;11.20;;;;;;;-141.50;100.00;63355.56;5075509;28;20075;-87
2022/06/02 04:43:47;;;;;;;14.15;9.98;;;;;;;-141.50;100.00;63355.56;5076678;28;20059;-84
2022/06/02 04:46:26;;;;;;;13.80;10.40;;;;;;;-141.50;100.00;63355.56;5079031;28;20514;-85
2022/06/02 04:49:23;;;;;;;16.45;10.73;;;;;;;-141.50;100.00;63355.56;5096488;28;20048;-84
2022/06/02 04:51:55;;;;;;;14.45;10.27;;;;;;;-141.50;100.00;63355.56;5109135;28;20059;-84
2022/06/02 04:54:30;;;;;;;17.33;10.35;;;;;;;-141.50;100.00;63355.56;5101511;28;20058;-84
2022/06/02 04:57:09;;;;;;;12.45;9.82;;;;;;;-141.50;100.00;63355.56;5083579;28;20086;-85
2022/06/02 04:59:46;;;;;;;16.65;10.07;;;;;;;-141.50;100.00;63355.56;5086941;28;20075;-84
2022/06/02 05:02:25;;;;;;;13.88;9.75;;;;;;;-141.50;100.00;63355.56;5080189;28;20048;-84
2022/06/02 05:05:06;;;;;;;11.50;8.75;;;;;;;-141.50;100.00;63355.56;5059055;28;20079;-85
2022/06/02 05:07:57;;;;;;;11.68;9.27;;;;;;;-141.50;100.00;63355.56;5074998;28;20111;-85
2022/06/02 05:10:38;;;;;;;27.15;8.98;;;;;;;-141.50;100.00;63355.56;5077367;28;20268;-86
2022/06/02 05:13:23;;;;;;;11.40;9.43;;;;;;;-141.50;100.00;63355.56;5073743;28;20048;-82
2022/06/02 05:16:20;;;;;;;14.77;9.80;;;;;;;-141.50;100.00;63355.56;5054567;28;20076;-87
2022/06/02 05:19:09;;;;;;;12.45;9.18;;;;;;;-141.50;100.00;63355.56;5052999;28;20167;-85
2022/06/02 05:21:55;;;;;;;9.13;8.13;;;;;;;-141.50;100.00;63355.56;5073780;28;20101;-82
2022/06/02 05:24:22;;;;;;;;;;;;;;;-141.50;100.00;63355.56;5055320;28;20571;-84
2022/06/02 05:27:26;;;;;;;12.35;8.77;;;;;;;-141.50;100.00;63355.56;5059405;28;20378;-84
2022/06/02 05:30:27;;;;;;;11.43;8.25;;;;;;;-141.50;100.00;63355.56;5084933;28;20056;-81
2022/06/02 05:32:59;;;;;;;11.18;8.55;;;;;;;-141.50;100.00;63355.56;5074504;28;20032;-79
2022/06/02 05:36:02;;;;;;;10.63;8.63;;;;;;;-141.50;100.00;63355.56;5067238;28;20056;-83
2022/06/02 05:39:17;;;;;;;11.93;7.95;;;;;;;-141.50;100.00;63355.56;5073189;28;20049;-87
2022/06/02 05:41:59;;;;;;;10.23;8.02;;;;;;;-141.50;100.00;63355.56;5066450;28;20087;-85
2022/06/02 05:44:52;;;;;;;12.13;8.13;;;;;;;-141.50;100.00;63355.56;5055011;28;20127;-82
2022/06/02 05:47:47;;;;;;;10.32;8.30;;;;;;;-141.50;100.00;63355.56;5072119;28;20541;-84
2022/06/02 05:50:41;;;;;;;10.75;7.85;;;;;;;-141.50;100.00;63355.56;5071603;28;20399;-85
2022/06/02 05:53:31;;;;;;;10.63;8.43;;;;;;;-141.50;100.00;63355.56;5071101;28;20056;-84
2022/06/02 05:56:14;;;;;;;11.52;8.45;;;;;;;-141.50;100.00;63355.56;5054493;28;20052;-82
2022/06/02 05:58:53;;;;;;;12.07;8.55;;;;;;;-141.50;100.00;63355.56;5072196;28;20159;-83
2022/06/02 06:01:56;;;;;;;10.68;8.07;;;;;;;-141.50;100.00;63355.56;5054215;28;20040;-83
2022/06/02 06:04:44;;;;;;;11.07;8.60;;;;;;;-141.50;100.00;63355.56;5052251;28;20080;-82
2022/06/02 06:07:20;;;;;;;13.98;8.88;;;;;;;-141.50;100.00;63355.56;5070683;28;20092;-83
2022/06/02 06:10:06;;;;;;;13.65;10.18;;;;;;;-141.50;100.00;63355.56;5068783;28;20068;-81
2022/06/02 06:13:05;;;;;;;11.10;9.02;;;;;;;-141.50;100.00;63355.56;5071381;28;20082;-82
2022/06/02 06:15:44;;;;;;;13.57;9.35;;;;;;;-141.50;100.00;63355.56;5033757;28;20139;-83
2022/06/02 06:18:41;;;;;;;14.18;9.30;;;;;;;-141.50;100.00;63355.56;5051616;28;20140;-81
2022/06/02 06:21:25;;;;;;;12.00;9.05;;;;;;;-141.50;100.00;63355.56;5032591;28;20045;-85
2022/06/02 06:24:04;;;;;;;11.77;8.88;;;;;;;-141.50;100.00;63355.56;5051062;28;20540;-83
2022/06/02 06:27:08;;;;;;;13.27;8.93;;;;;;;-141.50;100.00;63355.56;5033596;28;20557;-83
2022/06/02 06:30:06;;;;;;;14.52;8.75;;;;;;;-141.50;100.00;63355.56;5051353;28;20052;-84
2022/06/02 06:32:44;;;;;;;10.85;9.07;;;;;;;-141.50;100.00;63355.56;5033425;28;20065;-83
2022/06/02 06:35:31;;;;;;;12.15;8.85;;;;;;;-141.50;100.00;63355.56;5051709;28;20072;-84
2022/06/02 06:38:17;;;;;;;12.20;8.25;;;;;;;-141.50;100.00;63355.56;5051700;28;20106;-83
2022/06/02 06:41:01;;;;;;;13.03;9.50;;;;;;;-141.50;100.00;63355.56;5051638;28;20312;-84
2022/06/02 06:43:31;;;;;;;11.00;7.75;;;;;;;-141.50;100.00;63355.56;5052247;28;20045;-84
2022/06/02 06:46:24;;;;;;;10.38;7.63;;;;;;;-141.50;100.00;63355.56;5052484;28;20052;-86
2022/06/02 06:48:54;;;;;;;10.73;7.55;;;;;;;-141.50;100.00;63355.56;5034365;28;20080;-85
2022/06/02 06:52:05;;;;;;;9.20;7.30;;;;;;;-141.50;100.00;63355.56;5031138;28;20580;-82
2022/06/02 06:55:00;;;;;;;12.02;7.35;;;;;;;-141.50;100.00;63355.56;4998283;28;20549;-81
2022/06/02 06:57:47;;;;;;;9.88;7.18;;;;;;;-141.50;100.00;63355.56;5050304;28;20349;-82
2022/06/02 07:00:39;;;;;;;10.05;7.82;;;;;;;-141.50;100.00;63355.56;5009224;28;20553;-83
2022/06/02 07:03:30;;;;;;;12.30;7.97;;;;;;;-141.50;100.00;63355.56;5036835;28;20060;-82
2022/06/02 07:06:10;;;;;;;10.95;7.55;;;;;;;-141.50;100.00;63355.56;5037543;28;20100;-81
2022/06/02 07:09:09;;;;;;;9.25;7.03;;;;;;;-141.50;100.00;63355.56;5036609;28;20164;-84
2022/06/02 07:15:14;;;;;;;9.55;6.55;;;;;;;-141.50;100.00;63355.56;5055276;28;20080;-86
2022/06/02 07:17:49;;;;;;;8.60;6.60;;;;;;;-141.50;100.00;63355.56;4993038;28;20104;-82
2022/06/02 07:20:54;;;;;;;8.60;6.43;;;;;;;-141.50;100.00;63355.56;4993032;28;20480;-82
2022/06/02 07:23:45;;;;;;;7.70;6.43;;;;;;;-141.50;100.00;63355.56;5043339;28;20098;-83
2022/06/02 07:26:24;;;;;;;10.10;6.72;;;;;;;-141.50;100.00;63355.56;5052183;28;20426;-82
2022/06/02 07:28:56;;;;;;;9.85;6.88;;;;;;;-141.50;100.00;63355.56;5035264;28;20709;-80
2022/06/02 07:32:08;;;;;;;9.55;6.78;;;;;;;-141.50;100.00;63355.56;5042655;28;20407;-83
2022/06/02 07:35:16;;;;;;;8.48;6.72;;;;;;;-141.50;100.00;63355.56;5052488;28;20061;-82
2022/06/02 07:37:57;;;;;;;9.60;7.10;;;;;;;-141.50;100.00;63355.56;5067664;28;20557;-82
2022/06/02 07:40:43;;;;;;;9.18;7.57;;;;;;;-141.50;100.00;63355.56;5069118;28;20087;-83
2022/06/02 07:43:35;;;;;;;8.43;7.00;;;;;;;-141.50;100.00;63355.56;5051925;28;20111;-82
2022/06/02 07:46:25;;;;;;;8.55;6.70;;;;;;;-141.50;100.00;63355.56;5050232;28;20052;-84
2022/06/02 07:49:23;;;;;;;12.40;7.32;;;;;;;-141.50;100.00;63355.56;5061007;28;20140;-83
2022/06/02 07:52:07;;;;;;;9.60;6.38;;;;;;;-141.50;100.00;63355.56;5054341;28;20075;-83
2022/06/02 07:54:34;;;;;;;9.70;7.05;;;;;;;-141.50;100.00;63355.56;5054294;28;20645;-86
2022/06/02 07:57:18;;;;;;;8.40;6.25;;;;;;;-141.50;100.00;63355.56;5063796;28;20056;-81
2022/06/02 08:00:18;;;;;;;8.80;6.18;;;;;;;-141.50;100.00;63355.56;5073695;28;20079;-84
2022/06/02 08:02:57;;;;;;;7.32;5.85;;;;;;;-141.50;100.00;63355.56;5054255;28;20047;-83
2022/06/02 08:05:51;;;;;;;8.90;5.88;;;;;;;-141.50;100.00;63355.56;5062584;28;20056;-86
2022/06/02 08:08:43;;;;;;;10.02;6.28;;;;;;;-141.50;100.00;63355.56;5055424;28;20088;-84
2022/06/02 08:11:28;;;;;;;10.77;6.68;;;;;;;-141.50;100.00;63355.56;5054522;28;20041;-80
2022/06/02 08:14:12;;;;;;;8.10;6.22;;;;;;;-141.50;100.00;63355.56;5054021;28;20499;-83
2022/06/02 08:16:58;;;;;;;8.15;6.57;;;;;;;-141.50;100.00;63355.56;5054738;28;20045;-83
2022/06/02 08:19:59;;;;;;;11.93;7.43;;;;;;;-141.50;100.00;63355.56;5055165;28;20076;-84
2022/06/02 08:22:49;;;;;;;10.35;6.30;;;;;;;-141.50;100.00;63355.56;5051379;28;20657;-84
2022/06/02 08:25:26;;;;;;;8.00;6.03;;;;;;;-141.50;100.00;63355.56;5044350;28;20061;-81
2022/06/02 08:28:12;;;;;;;8.90;5.75;;;;;;;-141.50;100.00;63355.56;5033553;28;20084;-79
2022/06/02 08:31:00;;;;;;;7.97;5.10;;;;;;;-141.50;100.00;63355.56;5033713;28;20068;-81
2022/06/02 08:33:58;;;;;;;9.10;5.40;;;;;;;-141.50;100.00;63355.56;5037952;28;20315;-83
2022/06/02 08:36:29;;;;;;;8.27;5.93;;;;;;;-141.50;100.00;63355.56;5053843;28;20135;-81
2022/06/02 08:39:17;;;;;;;8.65;5.30;;;;;;;-141.50;100.00;63355.56;5053271;28;20049;-83
2022/06/02 08:42:03;;;;;;;7.00;4.55;;;;;;;-141.50;100.00;63355.56;5053332;28;20073;-83
2022/06/02 08:44:57;;;;;;;5.90;4.07;;;;;;;-141.50;100.00;63355.56;5053912;28;20135;-84
2022/06/02 08:47:58;;;;;;;5.68;3.70;;;;;;;-141.50;100.00;63355.56;5053679;28;20529;-83
2022/06/02 08:50:37;;;;;;;7.88;4.57;;;;;;;-141.50;100.00;63355.56;5035681;28;20079;-81
2022/06/02 08:53:41;;;;;;;6.00;3.63;;;;;;;-141.50;100.00;63355.56;5053645;28;20423;-83
2022/06/02 08:56:29;;;;;;;8.68;3.83;;;;;;;-141.50;100.00;63355.56;5052990;28;20060;-83
2022/06/02 08:59:34;;;;;;;6.93;3.47;;;;;;;-141.50;100.00;63355.56;5035638;28;20083;-84
2022/06/02 09:02:23;;;;;;;4.50;3.35;;;;;;;-141.50;100.00;63355.56;5054371;28;20081;-84
2022/06/02 09:05:01;;;;;;;4.43;3.40;;;;;;;-141.50;100.00;63355.56;5054435;28;20059;-85
2022/06/02 09:07:53;;;;;;;6.40;3.80;;;;;;;-141.50;100.00;63355.56;5037817;28;20487;-85
2022/06/02 09:10:48;;;;;;;8.35;3.88;;;;;;;-141.50;100.00;63355.56;5076610;28;20063;-83
2022/06/02 09:13:33;;;;;;;5.65;4.15;;;;;;;-141.50;100.00;63355.56;5079737;28;20044;-84
2022/06/02 09:16:37;;;;;;;5.00;3.90;;;;;;;-141.50;100.00;63355.56;5066529;28;20106;-84
2022/06/02 09:19:41;;;;;;;6.68;4.05;;;;;;;-141.50;100.00;63355.56;5070860;28;20044;-82
2022/06/02 09:22:10;;;;;;;7.18;3.85;;;;;;;-141.50;100.00;63355.56;5071344;28;20059;-85
2022/06/02 09:24:43;;;;;;;10.73;3.38;;;;;;;-141.50;100.00;63355.56;5073514;28;20052;-84
2022/06/02 09:27:34;;;;;;;4.90;2.80;;;;;;;-141.50;100.00;63355.56;5055541;28;20063;-84
2022/06/02 09:30:26;;;;;;;4.50;3.40;;;;;;;-141.50;100.00;63355.56;5072866;28;20048;-84
2022/06/02 09:33:35;;;;;;;4.15;3.28;;;;;;;-141.50;100.00;63355.56;5075459;28;20079;-87
2022/06/02 09:36:27;;;;;;;5.05;3.00;;;;;;;-141.50;100.00;63355.56;5057072;28;20057;-83
2022/06/02 09:39:11;;;;;;;4.15;2.90;;;;;;;-141.50;100.00;63355.56;5054730;28;20071;-84
2022/06/02 09:41:56;;;;;;;4.10;2.72;;;;;;;-141.50;100.00;63355.56;5072774;28;20055;-83
2022/06/02 09:44:29;;;;;;;3.92;2.17;;;;;;;-141.50;100.00;63355.56;5073329;28;20454;-85
2022/06/02 09:47:15;;;;;;;3.33;2.33;;;;;;;-141.50;100.00;63355.56;5071707;28;20063;-83
2022/06/02 09:50:12;;;;;;;3.47;2.38;;;;;;;-141.50;100.00;63355.56;5070920;28;20049;-82
2022/06/02 09:53:09;;;;;;;2.95;2.38;;;;;;;-141.50;100.00;63355.56;5051697;28;20102;-83
2022/06/02 09:55:37;;;;;;;2.88;2.20;;;;;;;-141.50;100.00;63355.56;5070497;28;20511;-82
2022/06/02 09:58:33;;;;;;;2.83;2.08;;;;;;;-141.50;100.00;63355.56;5071216;28;20082;-80
2022/06/02 10:01:22;;;;;;;3.15;1.73;;;;;;;-141.50;100.00;63355.56;5052192;28;20127;-83
2022/06/02 10:04:17;;;;;;;2.28;1.58;;;;;;;-141.50;100.00;63355.56;5072223;28;20052;-80
2022/06/02 10:07:05;;;;;;;2.58;1.92;;;;;;;-141.50;100.00;63355.56;5053834;28;20055;-82
2022/06/02 10:09:40;;;;;;;2.92;1.90;;;;;;;-141.50;100.00;63355.56;5053209;28;20095;-81
2022/06/02 10:13:00;;;;;;;2.63;1.85;;;;;;;-141.50;100.00;63355.56;5083746;28;20048;-81
2022/06/02 10:15:48;;;;;;;1.88;1.30;;;;;;;-141.50;100.00;63355.56;5050774;28;20057;-84
2022/06/02 10:18:46;;;;;;;2.63;1.70;;;;;;;-141.50;100.00;63355.56;5054045;28;20113;-83
2022/06/02 10:21:15;;;;;;;2.80;1.45;;;;;;;-141.50;100.00;63355.56;5051406;28;20049;-84
2022/06/02 10:24:37;;;;;;;4.72;1.67;;;;;;;-141.50;100.00;63355.56;5050846;28;20472;-83
2022/06/02 10:27:25;;;;;;;5.20;1.65;;;;;;;-141.50;100.00;63355.56;5020558;28;20052;-81
2022/06/02 10:30:29;;;;;;;5.25;1.75;;;;;;;-141.50;100.00;63355.56;5051601;28;20053;-82
2022/06/02 10:33:37;;;;;;;3.20;1.50;;;;;;;-141.50;100.00;63355.56;5051512;28;20053;-85
2022/06/02 10:36:41;;;;;;;1.52;1.30;;;;;;;-141.50;100.00;63355.56;5026640;28;20085;-85
2022/06/02 10:39:07;;;;;;;1.70;1.33;;;;;;;-141.50;100.00;63355.56;5051809;28;20098;-83
2022/06/02 10:41:43;;;;;;;3.88;1.40;;;;;;;-141.50;100.00;63355.56;5052866;28;20107;-84
2022/06/02 10:44:19;;;;;;;2.30;1.38;;;;;;;-141.50;100.00;63355.56;5053926;28;20045;-87
2022/06/02 10:46:55;;;;;;;2.00;1.60;;;;;;;-141.50;100.00;63355.56;5060905;28;20060;-81
2022/06/02 10:49:30;;;;;;;2.53;1.40;;;;;;;-141.50;100.00;63355.56;5058001;28;20071;-81
2022/06/02 10:52:41;;;;;;;1.67;1.10;;;;;;;-141.50;100.00;63355.56;5058559;28;20098;-81
2022/06/02 10:55:26;;;;;;;1.90;1.00;;;;;;;-141.50;100.00;63355.56;5041740;28;20057;-84
2022/06/02 10:58:14;;;;;;;2.20;1.50;;;;;;;-141.50;100.00;63355.56;5059750;28;20045;-83
2022/06/02 11:01:24;;;;;;;3.58;1.50;;;;;;;-141.50;100.00;63355.56;5049757;28;20371;-82
2022/06/02 11:04:34;;;;;;;13.07;1.80;;;;;;;-141.50;100.00;63355.56;5049804;28;20135;-81
2022/06/02 11:07:13;;;;;;;5.03;1.40;;;;;;;-141.50;100.00;63355.56;5048529;28;20136;-83
2022/06/02 11:09:57;;;;;;;2.90;1.40;;;;;;;-141.50;100.00;63355.56;5047486;28;20072;-81
2022/06/02 11:12:49;;;;;;;1.70;1.40;;;;;;;-141.50;100.00;63355.56;5049748;28;20083;-81
2022/06/02 11:15:41;;;;;;;1.67;1.20;;;;;;;-141.50;100.00;63355.56;5069785;28;20048;-83
2022/06/02 11:18:45;;;;;;;1.23;1.10;;;;;;;-141.50;100.00;63355.56;5051931;28;20049;-82
2022/06/02 11:21:40;;;;;;;1.77;1.10;;;;;;;-141.50;100.00;63355.56;5069653;28;20083;-82
2022/06/02 11:24:25;;;;;;;1.58;0.90;;;;;;;-141.50;100.00;63355.56;5070090;28;20048;-82
2022/06/02 11:27:27;;;;;;;1.10;0.93;;;;;;;-141.50;100.00;63355.56;5070131;28;20070;-81
2022/06/02 11:30:17;;;;;;;1.52;0.73;;;;;;;-141.50;100.00;63355.56;5065063;28;20090;-84
2022/06/02 11:33:04;;;;;;;4.00;1.00;;;;;;;-141.50;100.00;63355.56;5088246;28;20044;-82
2022/06/02 11:36:05;;;;;;;1.67;1.15;;;;;;;-141.50;100.00;63355.56;5070677;28;20059;-81
2022/06/02 11:39:02;;;;;;;4.35;0.95;;;;;;;-141.50;100.00;63355.56;5078077;28;20052;-83
2022/06/02 11:41:44;;;;;;;1.23;1.00;;;;;;;-141.50;100.00;63355.56;5063011;28;20076;-84
2022/06/02 11:44:22;;;;;;;1.10;0.90;;;;;;;-141.50;100.00;63355.56;5081453;28;20048;-85
2022/06/02 11:47:36;;;;;;;5.47;1.13;;;;;;;-141.50;100.00;63355.56;5083041;28;20075;-80
2022/06/02 11:50:03;;;;;;;3.60;1.05;;;;;;;-141.50;100.00;63355.56;5014745;28;20058;-83
2022/06/02 11:52:35;;;;;;;3.08;1.10;;;;;;;-141.50;100.00;63355.56;5085866;28;20063;-82
2022/06/02 11:55:14;;;;;;;2.40;0.85;;;;;;;-141.50;100.00;63355.56;5058693;28;20080;-82
2022/06/02 11:57:48;;;;;;;2.92;0.88;;;;;;;-141.50;100.00;63355.56;5074936;28;20190;-83
2022/06/02 12:00:24;;;;;;;1.20;0.93;;;;;;;-141.50;100.00;63355.56;5075382;28;20693;-83
2022/06/02 12:03:06;;;;;;;1.15;0.88;;;;;;;-141.50;100.00;63355.56;5057612;28;20040;-84
2022/06/02 12:05:42;;;;;;;4.40;0.90;;;;;;;-141.50;100.00;63355.56;5072717;28;20454;-83
2022/06/02 12:08:17;;;;;;;2.17;1.00;;;;;;;-141.50;100.00;63355.56;5073944;28;20113;-84
2022/06/02 12:11:02;;;;;;;;;;;;;;;-141.50;100.00;63355.56;5075893;28;20049;-86
2022/06/02 12:13:52;;;;;;;0.88;0.80;;;;;;;-141.50;100.00;63355.56;5076716;28;19920;-85
2022/06/02 12:16:43;;;;;;;6.22;0.90;;;;;;;-141.50;100.00;63355.56;5075465;28;20121;-82
2022/06/02 12:19:09;;;;;;;1.10;0.73;;;;;;;-141.50;100.00;63355.56;5076200;28;20162;-82
2022/06/02 12:21:51;;;;;;;1.45;0.90;;;;;;;-141.50;100.00;63355.56;5072962;28;20055;-82
2022/06/02 12:24:59;;;;;;;1.80;0.90;;;;;;;-141.50;100.00;63355.56;5072843;28;20059;-83
2022/06/02 12:27:44;;;;;;;1.17;0.70;;;;;;;-141.50;100.00;63355.56;5057161;28;20128;-84
2022/06/02 12:30:37;;;;;;;1.10;1.00;;;;;;;-141.50;100.00;63355.56;5075423;28;20048;-82
2022/06/02 12:33:13;;;;;;;1.95;0.90;;;;;;;-141.50;100.00;63355.56;5074565;28;20049;-84
2022/06/02 12:36:03;;;;;;;1.25;0.60;;;;;;;-141.50;100.00;63355.56;5075859;28;20055;-81
2022/06/02 12:38:48;;;;;;;1.25;0.80;;;;;;;-141.50;100.00;63355.56;5074384;28;20197;-82
2022/06/02 12:41:30;;;;;;;0.90;0.70;;;;;;;-141.50;100.00;63355.56;5055306;28;20044;-82
2022/06/02 12:44:31;;;;;;;3.13;0.82;;;;;;;-141.50;100.00;63355.56;5074533;28;20048;-84